createdAt,value
2023-02-01T00:00:38.569Z,6.19
2023-02-01T00:03:06.668Z,7.12
2023-02-01T00:05:33.992Z,9.01
2023-02-01T00:08:01.401Z,8.38
2023-02-01T00:10:28.914Z,10.07
2023-02-01T00:12:56.313Z,10.25
2023-02-01T00:15:24.171Z,9.40
2023-02-01T00:17:56.075Z,10.40
2023-02-01T00:20:24.959Z,11.36
2023-02-01T00:22:52.655Z,10.01
2023-02-01T00:25:20.096Z,9.80
2023-02-01T00:27:51.449Z,7.94
2023-02-01T00:30:19.938Z,5.66
2023-02-01T00:32:47.684Z,4.88
2023-02-01T00:35:15.480Z,4.61
2023-02-01T00:37:43.018Z,4.61
2023-02-01T00:40:10.518Z,5.57
2023-02-01T00:42:37.692Z,5.17
2023-02-01T00:45:05.365Z,5.79
2023-02-01T00:47:33.016Z,5.13
2023-02-01T00:50:00.317Z,8.55
2023-02-01T00:52:28.176Z,7.78
2023-02-01T00:54:55.346Z,8.40
2023-02-01T00:57:22.532Z,8.96
2023-02-01T00:59:49.969Z,10.17
2023-02-01T01:02:17.261Z,9.51
2023-02-01T01:04:44.457Z,9.91
2023-02-01T01:07:11.986Z,9.94
2023-02-01T01:09:39.237Z,8.36
2023-02-01T01:12:06.404Z,5.22
2023-02-01T01:14:33.886Z,6.51
2023-02-01T01:17:01.111Z,5.94
2023-02-01T01:19:28.273Z,5.72
2023-02-01T01:21:55.727Z,4.71
2023-02-01T01:24:22.907Z,4.83
2023-02-01T01:26:50.371Z,4.07
2023-02-01T01:29:17.988Z,3.62
2023-02-01T01:31:45.238Z,4.25
2023-02-01T01:34:12.466Z,3.68
2023-02-01T01:36:39.933Z,3.63
2023-02-01T01:39:07.083Z,3.96
2023-02-01T01:41:34.486Z,4.02
2023-02-01T01:44:28.045Z,3.89
2023-02-01T01:46:55.323Z,4.01
2023-02-01T01:49:23.528Z,4.19
2023-02-01T01:51:52.450Z,3.79
2023-02-01T01:54:21.195Z,4.98
2023-02-01T01:56:50.097Z,3.88
2023-02-01T01:59:17.417Z,4.99
2023-02-01T02:01:44.699Z,4.31
2023-02-01T02:04:12.292Z,4.10
2023-02-01T02:06:51.361Z,4.14
2023-02-01T02:09:19.089Z,4.40
2023-02-01T02:11:46.574Z,4.25
2023-02-01T02:14:14.562Z,3.85
2023-02-01T02:16:46.572Z,3.87
2023-02-01T02:19:29.660Z,4.06
2023-02-01T02:22:15.263Z,3.61
2023-02-01T02:25:01.985Z,3.81
2023-02-01T02:27:55.719Z,3.54
2023-02-01T02:30:23.472Z,3.35
2023-02-01T02:33:09.485Z,3.54
2023-02-01T02:35:55.636Z,3.40
2023-02-01T02:38:42.537Z,3.78
2023-02-01T02:41:10.055Z,3.43
2023-02-01T02:43:58.180Z,3.13
2023-02-01T02:46:45.766Z,3.10
2023-02-01T02:49:19.074Z,3.10
2023-02-01T02:52:06.415Z,3.55
2023-02-01T02:54:51.766Z,3.34
2023-02-01T02:57:38.716Z,3.57
2023-02-01T03:00:26.536Z,3.73
2023-02-01T03:03:13.059Z,3.93
2023-02-01T03:05:45.109Z,3.50
2023-02-01T03:08:12.729Z,3.76
2023-02-01T03:10:43.207Z,4.08
2023-02-01T03:13:12.754Z,4.25
2023-02-01T03:15:45.031Z,4.41
2023-02-01T03:18:17.983Z,5.66
2023-02-01T03:20:46.246Z,3.94
2023-02-01T03:23:13.618Z,4.08
2023-02-01T03:25:41.536Z,5.13
2023-02-01T03:28:12.356Z,4.90
2023-02-01T03:30:41.377Z,4.80
2023-02-01T03:33:23.167Z,4.72
2023-02-01T03:35:56.618Z,5.26
2023-02-01T03:38:50.128Z,5.49
2023-02-01T03:41:17.594Z,4.59
2023-02-01T03:43:59.392Z,4.43
2023-02-01T03:46:36.630Z,4.62
2023-02-01T03:49:06.352Z,4.96
2023-02-01T03:51:33.755Z,3.93
2023-02-01T03:54:01.077Z,4.99
2023-02-01T03:56:28.612Z,3.67
2023-02-01T03:59:00.157Z,4.90
2023-02-01T04:01:28.445Z,4.19
2023-02-01T04:03:56.824Z,5.16
2023-02-01T04:06:24.212Z,3.97
2023-02-01T04:08:51.749Z,4.95
2023-02-01T04:11:19.464Z,4.14
2023-02-01T04:13:46.679Z,4.52
2023-02-01T04:16:14.134Z,4.50
2023-02-01T04:18:41.604Z,4.09
2023-02-01T04:21:08.808Z,5.43
2023-02-01T04:23:39.809Z,5.43
2023-02-01T04:26:07.758Z,4.94
2023-02-01T04:28:35.001Z,4.09
2023-02-01T04:31:02.227Z,5.01
2023-02-01T04:33:29.702Z,4.98
2023-02-01T04:35:57.036Z,3.78
2023-02-01T04:38:24.283Z,3.95
2023-02-01T04:40:51.840Z,3.51
2023-02-01T04:43:19.223Z,4.56
2023-02-01T04:45:49.940Z,4.25
2023-02-01T04:48:18.241Z,5.16
2023-02-01T04:50:48.406Z,4.98
2023-02-01T04:53:16.044Z,4.67
2023-02-01T04:55:43.817Z,4.32
2023-02-01T04:58:11.118Z,4.61
2023-02-01T05:00:38.752Z,4.74
2023-02-01T05:03:06.282Z,4.43
2023-02-01T05:05:33.490Z,4.39
2023-02-01T05:08:00.684Z,5.20
2023-02-01T05:10:28.204Z,4.11
2023-02-01T05:13:14.142Z,4.22
2023-02-01T05:15:41.631Z,4.93
2023-02-01T05:18:08.809Z,5.56
2023-02-01T05:20:35.982Z,4.73
2023-02-01T05:23:03.517Z,5.04
2023-02-01T05:25:30.715Z,5.21
2023-02-01T05:27:57.888Z,5.48
2023-02-01T05:30:25.596Z,5.04
2023-02-01T05:32:53.281Z,5.40
2023-02-01T05:35:20.472Z,4.79
2023-02-01T05:37:47.988Z,4.48
2023-02-01T05:40:15.290Z,5.39
2023-02-01T05:42:42.461Z,4.66
2023-02-01T05:45:10.161Z,5.00
2023-02-01T05:47:37.439Z,4.79
2023-02-01T05:50:05.054Z,5.08
2023-02-01T05:52:32.443Z,5.02
2023-02-01T05:54:59.626Z,4.95
2023-02-01T05:57:26.765Z,3.96
2023-02-01T05:59:54.204Z,4.49
2023-02-01T06:02:22.768Z,3.84
2023-02-01T06:04:50.282Z,4.63
2023-02-01T06:07:17.489Z,5.06
2023-02-01T06:09:44.696Z,4.36
2023-02-01T06:12:13.287Z,3.99
2023-02-01T06:14:40.523Z,5.04
2023-02-01T06:17:07.984Z,4.04
2023-02-01T06:19:35.487Z,4.93
2023-02-01T06:22:02.673Z,5.18
2023-02-01T06:24:29.901Z,3.66
2023-02-01T06:26:57.361Z,4.27
2023-02-01T06:29:25.048Z,4.21
2023-02-01T06:31:52.526Z,4.79
2023-02-01T06:34:22.178Z,4.11
2023-02-01T06:36:49.645Z,5.36
2023-02-01T06:39:17.270Z,5.09
2023-02-01T06:41:48.417Z,4.89
2023-02-01T06:44:15.939Z,5.48
2023-02-01T06:46:43.270Z,5.40
2023-02-01T06:49:12.098Z,5.91
2023-02-01T06:51:39.346Z,5.13
2023-02-01T06:54:06.502Z,5.35
2023-02-01T06:56:34.069Z,5.56
2023-02-01T06:59:03.029Z,5.41
2023-02-01T07:01:30.197Z,5.24
2023-02-01T07:03:57.737Z,5.53
2023-02-01T07:06:24.967Z,5.60
2023-02-01T07:08:52.139Z,5.91
2023-02-01T07:11:19.936Z,5.36
2023-02-01T07:13:47.283Z,5.93
2023-02-01T07:16:15.652Z,5.44
2023-02-01T07:18:43.129Z,6.31
2023-02-01T07:21:10.442Z,4.49
2023-02-01T07:23:37.935Z,5.73
2023-02-01T07:26:06.355Z,6.01
2023-02-01T07:28:34.468Z,6.45
2023-02-01T07:31:08.937Z,6.64
2023-02-01T07:33:36.499Z,6.84
2023-02-01T07:36:04.442Z,6.05
2023-02-01T07:38:31.747Z,6.14
2023-02-01T07:41:00.463Z,6.72
2023-02-01T07:43:28.236Z,6.08
2023-02-01T07:45:55.617Z,5.09
2023-02-01T07:48:23.625Z,5.21
2023-02-01T07:50:57.971Z,6.22
2023-02-01T07:53:25.447Z,6.33
2023-02-01T07:55:52.599Z,4.88
2023-02-01T07:58:19.849Z,5.06
2023-02-01T08:01:06.379Z,5.10
2023-02-01T08:03:33.880Z,6.08
2023-02-01T08:06:01.094Z,5.63
2023-02-01T08:08:28.714Z,5.75
2023-02-01T08:10:59.663Z,6.60
2023-02-01T08:13:26.876Z,5.98
2023-02-01T08:15:54.011Z,5.31
2023-02-01T08:18:21.887Z,6.12
2023-02-01T08:20:49.108Z,5.86
2023-02-01T08:23:16.461Z,5.67
2023-02-01T08:25:44.308Z,6.08
2023-02-01T08:28:11.804Z,6.33
2023-02-01T08:30:39.698Z,6.07
2023-02-01T08:33:10.138Z,5.36
2023-02-01T08:35:43.937Z,5.42
2023-02-01T08:38:11.955Z,5.81
2023-02-01T08:40:39.257Z,6.77
2023-02-01T08:43:06.781Z,7.00
2023-02-01T08:45:34.683Z,5.98
2023-02-01T08:48:01.913Z,6.20
2023-02-01T08:50:29.317Z,6.92
2023-02-01T08:52:57.004Z,6.45
2023-02-01T08:55:26.225Z,6.24
2023-02-01T08:57:53.632Z,7.38
2023-02-01T09:00:21.730Z,6.83
2023-02-01T09:02:49.255Z,6.61
2023-02-01T09:05:19.276Z,7.09
2023-02-01T09:07:46.968Z,6.36
2023-02-01T09:10:15.797Z,6.33
2023-02-01T09:12:44.521Z,5.93
2023-02-01T09:15:12.299Z,7.55
2023-02-01T09:17:40.605Z,7.27
2023-02-01T09:20:08.015Z,6.38
2023-02-01T09:22:35.553Z,6.56
2023-02-01T09:25:03.024Z,6.20
2023-02-01T09:27:30.565Z,8.16
2023-02-01T09:29:58.773Z,7.80
2023-02-01T09:32:26.341Z,6.96
2023-02-01T09:34:53.903Z,7.41
2023-02-01T09:37:21.723Z,6.77
2023-02-01T09:39:49.267Z,7.02
2023-02-01T09:42:50.726Z,6.39
2023-02-01T09:45:21.535Z,6.28
2023-02-01T09:47:53.915Z,7.33
2023-02-01T09:50:24.789Z,7.42
2023-02-01T09:52:58.390Z,6.19
2023-02-01T09:55:47.725Z,6.01
2023-02-01T09:58:16.035Z,6.26
2023-02-01T10:00:53.211Z,6.25
2023-02-01T10:03:21.808Z,6.46
2023-02-01T10:06:01.395Z,7.62
2023-02-01T10:08:39.029Z,6.43
2023-02-01T10:11:32.555Z,8.88
2023-02-01T10:14:05.095Z,6.59
2023-02-01T10:16:42.132Z,7.20
2023-02-01T10:19:54.382Z,8.14
2023-02-01T10:23:05.009Z,8.59
2023-02-01T10:25:41.228Z,7.40
2023-02-01T10:28:14.383Z,7.09
2023-02-01T10:30:45.862Z,6.88
2023-02-01T10:33:35.740Z,7.21
2023-02-01T10:36:06.442Z,8.13
2023-02-01T10:38:34.589Z,7.64
2023-02-01T10:41:05.350Z,6.97
2023-02-01T10:43:35.010Z,6.31
2023-02-01T10:46:03.049Z,6.69
2023-02-01T10:48:31.213Z,6.60
2023-02-01T10:51:01.887Z,7.47
2023-02-01T10:53:40.647Z,8.16
2023-02-01T10:56:10.024Z,7.39
2023-02-01T10:58:45.032Z,8.01
2023-02-01T11:01:32.116Z,8.16
2023-02-01T11:04:02.003Z,7.97
2023-02-01T11:06:41.673Z,7.07
2023-02-01T11:09:09.010Z,8.63
2023-02-01T11:12:00.534Z,7.15
2023-02-01T11:14:35.213Z,6.85
2023-02-01T11:17:04.944Z,6.55
2023-02-01T11:19:32.572Z,6.87
2023-02-01T11:22:01.629Z,7.13
2023-02-01T11:24:34.452Z,6.83
2023-02-01T11:27:06.713Z,7.00
2023-02-01T11:29:40.250Z,7.68
2023-02-01T11:32:09.352Z,7.53
2023-02-01T11:34:40.280Z,7.63
2023-02-01T11:37:16.960Z,8.99
2023-02-01T11:39:57.569Z,8.25
2023-02-01T11:42:25.995Z,7.71
2023-02-01T11:45:29.944Z,7.55
2023-02-01T11:47:59.313Z,7.17
2023-02-01T11:50:56.143Z,6.89
2023-02-01T11:53:56.195Z,6.64
2023-02-01T11:56:34.739Z,7.57
2023-02-01T11:59:05.091Z,6.87
2023-02-01T12:01:36.823Z,6.79
2023-02-01T12:04:15.000Z,6.45
2023-02-01T12:06:52.956Z,5.64
2023-02-01T12:09:53.300Z,5.65
2023-02-01T12:12:26.938Z,5.59
2023-02-01T12:15:15.959Z,5.81
2023-02-01T12:18:02.107Z,5.36
2023-02-01T12:20:35.748Z,4.60
2023-02-01T12:23:15.099Z,4.63
2023-02-01T12:25:45.534Z,4.16
2023-02-01T12:28:19.017Z,4.17
2023-02-01T12:30:49.652Z,3.99
2023-02-01T12:33:16.974Z,4.24
2023-02-01T12:35:49.848Z,4.74
2023-02-01T12:38:21.103Z,4.36
2023-02-01T12:41:07.033Z,4.53
2023-02-01T12:43:39.622Z,4.48
2023-02-01T12:46:26.756Z,4.28
2023-02-01T12:48:58.857Z,4.18
2023-02-01T12:51:27.699Z,4.28
2023-02-01T12:53:56.584Z,4.33
2023-02-01T12:56:38.491Z,4.64
2023-02-01T12:59:07.678Z,4.36
2023-02-01T13:01:35.048Z,5.26
2023-02-01T13:04:20.513Z,5.19
2023-02-01T13:07:00.115Z,5.46
2023-02-01T13:09:33.097Z,5.26
2023-02-01T13:12:01.992Z,5.49
2023-02-01T13:14:32.662Z,5.23
2023-02-01T13:17:12.761Z,5.82
2023-02-01T13:19:55.727Z,5.37
2023-02-01T13:22:28.920Z,5.76
2023-02-01T13:24:56.463Z,5.31
2023-02-01T13:27:24.908Z,4.99
2023-02-01T13:29:54.274Z,5.03
2023-02-01T13:33:50.078Z,5.24
2023-02-01T13:35:41.171Z,5.64
2023-02-01T13:38:08.792Z,5.32
2023-02-01T13:40:39.008Z,5.01
2023-02-01T13:43:07.974Z,4.86
2023-02-01T13:45:36.213Z,4.80
2023-02-01T13:48:04.731Z,4.96
2023-02-01T13:50:35.034Z,4.87
2023-02-01T13:53:06.025Z,5.41
2023-02-01T13:55:34.503Z,4.96
2023-02-01T13:58:20.631Z,4.67
2023-02-01T14:00:48.936Z,4.85
2023-02-01T14:03:17.667Z,5.64
2023-02-01T14:05:44.900Z,5.08
2023-02-01T14:08:16.117Z,5.23
2023-02-01T14:10:48.420Z,5.04
2023-02-01T14:13:34.461Z,5.84
2023-02-01T14:16:05.687Z,5.41
2023-02-01T14:18:35.849Z,6.12
2023-02-01T14:21:23.712Z,5.56
2023-02-01T14:23:54.663Z,5.71
2023-02-01T14:26:22.994Z,5.63
2023-02-01T14:29:01.594Z,5.26
2023-02-01T14:31:32.452Z,5.87
2023-02-01T14:34:00.470Z,5.45
2023-02-01T14:36:27.759Z,5.57
2023-02-01T14:38:55.361Z,6.04
2023-02-01T14:41:26.658Z,5.78
2023-02-01T14:44:04.426Z,5.63
2023-02-01T14:46:51.682Z,5.62
2023-02-01T14:49:19.933Z,6.07
2023-02-01T14:51:47.697Z,5.95
2023-02-01T14:54:14.861Z,5.75
2023-02-01T14:56:42.202Z,5.81
2023-02-01T14:59:11.027Z,6.12
2023-02-01T15:01:40.112Z,5.65
2023-02-01T15:04:10.196Z,6.13
2023-02-01T15:06:44.360Z,6.69
2023-02-01T15:09:18.508Z,6.25
2023-02-01T15:11:58.433Z,6.21
2023-02-01T15:14:26.135Z,6.27
2023-02-01T15:16:57.082Z,7.38
2023-02-01T15:19:27.997Z,6.87
2023-02-01T15:21:56.415Z,6.37
2023-02-01T15:24:29.196Z,6.56
2023-02-01T15:26:57.117Z,6.53
2023-02-01T15:29:28.936Z,7.15
2023-02-01T15:31:56.568Z,6.60
2023-02-01T15:34:23.782Z,6.20
2023-02-01T15:37:02.581Z,7.42
2023-02-01T15:39:32.450Z,6.07
2023-02-01T15:42:05.317Z,6.02
2023-02-01T15:44:44.057Z,5.49
2023-02-01T15:47:16.559Z,5.82
2023-02-01T15:49:44.681Z,6.12
2023-02-01T15:52:17.473Z,5.77
2023-02-01T15:54:47.529Z,5.66
2023-02-01T15:57:15.958Z,5.48
2023-02-01T15:59:43.781Z,5.24
2023-02-01T16:02:26.715Z,5.67
2023-02-01T16:04:55.472Z,6.02
2023-02-01T16:07:28.207Z,5.79
2023-02-01T16:09:56.583Z,5.83
2023-02-01T16:12:36.742Z,6.57
2023-02-01T16:15:04.431Z,6.36
2023-02-01T16:17:31.946Z,6.63
2023-02-01T16:19:59.336Z,7.26
2023-02-01T16:22:27.242Z,7.09
2023-02-01T16:24:54.841Z,6.24
2023-02-01T16:27:23.337Z,6.09
2023-02-01T16:29:51.407Z,6.75
2023-02-01T16:32:19.975Z,6.12
2023-02-01T16:34:47.981Z,6.21
2023-02-01T16:37:17.496Z,8.60
2023-02-01T16:39:45.251Z,6.63
2023-02-01T16:42:13.563Z,6.54
2023-02-01T16:44:41.649Z,5.61
2023-02-01T16:47:13.917Z,5.19
2023-02-01T16:49:42.116Z,5.40
2023-02-01T16:52:13.266Z,5.46
2023-02-01T16:54:40.706Z,5.50
2023-02-01T16:57:12.400Z,5.11
2023-02-01T16:59:39.996Z,5.14
2023-02-01T17:02:11.363Z,5.58
2023-02-01T17:04:40.696Z,5.05
2023-02-01T17:07:12.312Z,5.27
2023-02-01T17:09:40.090Z,5.23
2023-02-01T17:12:08.403Z,5.09
2023-02-01T17:14:38.427Z,5.68
2023-02-01T17:17:08.567Z,4.97
2023-02-01T17:19:36.134Z,5.14
2023-02-01T17:22:03.911Z,5.19
2023-02-01T17:24:46.455Z,5.20
2023-02-01T17:27:16.760Z,5.01
2023-02-01T17:29:45.366Z,5.08
2023-02-01T17:32:17.226Z,5.12
2023-02-01T17:34:46.970Z,5.16
2023-02-01T17:37:31.575Z,5.10
2023-02-01T17:39:59.756Z,4.88
2023-02-01T17:42:28.883Z,5.03
2023-02-01T17:44:57.400Z,4.77
2023-02-01T17:47:27.572Z,5.01
2023-02-01T17:49:58.019Z,5.05
2023-02-01T17:52:26.349Z,4.83
2023-02-01T17:54:54.791Z,5.09
2023-02-01T17:57:22.411Z,4.91
2023-02-01T17:59:49.622Z,5.30
2023-02-01T18:02:24.165Z,5.37
2023-02-01T18:04:52.254Z,4.51
2023-02-01T18:07:19.695Z,4.88
2023-02-01T18:09:47.982Z,4.76
2023-02-01T18:12:19.822Z,5.06
2023-02-01T18:14:47.473Z,4.76
2023-02-01T18:17:16.872Z,4.59
2023-02-01T18:19:45.128Z,5.03
2023-02-01T18:22:15.710Z,5.18
2023-02-01T18:24:44.223Z,4.61
2023-02-01T18:27:12.840Z,5.19
2023-02-01T18:29:40.991Z,4.56
2023-02-01T18:32:09.798Z,4.66
2023-02-01T18:34:42.898Z,4.98
2023-02-01T18:37:11.319Z,4.97
2023-02-01T18:39:40.420Z,4.86
2023-02-01T18:42:10.502Z,4.96
2023-02-01T18:44:39.294Z,5.50
2023-02-01T18:47:08.313Z,4.87
2023-02-01T18:49:37.753Z,5.88
2023-02-01T18:52:07.013Z,4.78
2023-02-01T18:54:36.027Z,5.16
2023-02-01T18:57:04.695Z,4.45
2023-02-01T18:59:32.743Z,4.84
2023-02-01T19:02:01.500Z,4.57
2023-02-01T19:04:30.331Z,5.20
2023-02-01T19:07:00.461Z,5.41
2023-02-01T19:09:29.540Z,6.00
2023-02-01T19:11:57.083Z,5.86
2023-02-01T19:14:24.821Z,5.52
2023-02-01T19:16:55.311Z,4.80
2023-02-01T19:19:25.111Z,5.10
2023-02-01T19:21:55.413Z,5.88
2023-02-01T19:24:28.283Z,5.39
2023-02-01T19:26:57.424Z,5.88
2023-02-01T19:29:25.534Z,6.22
2023-02-01T19:31:54.064Z,6.09
2023-02-01T19:34:24.162Z,5.31
2023-02-01T19:36:53.136Z,4.97
2023-02-01T19:39:22.414Z,5.42
2023-02-01T19:41:52.770Z,6.08
2023-02-01T19:44:21.136Z,5.81
2023-02-01T19:46:49.723Z,5.69
2023-02-01T19:49:19.108Z,6.03
2023-02-01T19:51:49.259Z,6.08
2023-02-01T19:54:17.255Z,6.02
2023-02-01T19:56:46.545Z,5.94
2023-02-01T19:59:15.798Z,4.73
2023-02-01T20:01:47.016Z,4.89
2023-02-01T20:04:16.329Z,6.05
2023-02-01T20:06:49.435Z,5.95
2023-02-01T20:09:22.739Z,5.45
2023-02-01T20:11:51.007Z,5.03
2023-02-01T20:14:24.634Z,4.85
2023-02-01T20:16:52.709Z,4.63
2023-02-01T20:19:23.553Z,6.17
2023-02-01T20:21:52.716Z,5.81
2023-02-01T20:24:22.951Z,5.05
2023-02-01T20:26:53.158Z,4.79
2023-02-01T20:29:25.995Z,4.73
2023-02-01T20:31:54.809Z,4.50
2023-02-01T20:34:24.669Z,4.58
2023-02-01T20:36:53.152Z,4.76
2023-02-01T20:39:21.664Z,5.44
2023-02-01T20:41:50.296Z,5.34
2023-02-01T20:44:21.139Z,5.96
2023-02-01T20:46:49.717Z,5.31
2023-02-01T20:49:18.101Z,5.97
2023-02-01T20:51:46.561Z,5.23
2023-02-01T20:54:15.922Z,5.34
2023-02-01T20:56:45.462Z,5.69
2023-02-01T20:59:14.362Z,6.47
2023-02-01T21:01:52.121Z,5.88
2023-02-01T21:04:20.753Z,5.49
2023-02-01T21:06:49.977Z,5.89
2023-02-01T21:09:18.759Z,5.39
2023-02-01T21:11:46.675Z,4.21
2023-02-01T21:14:14.872Z,4.89
2023-02-01T21:16:42.453Z,4.48
2023-02-01T21:19:10.277Z,5.02
2023-02-01T21:21:38.494Z,4.17
2023-02-01T21:24:06.332Z,4.93
2023-02-01T21:26:42.444Z,4.33
2023-02-01T21:29:12.381Z,4.26
2023-02-01T21:31:40.541Z,4.21
2023-02-01T21:34:08.127Z,4.33
2023-02-01T21:36:35.928Z,4.22
2023-02-01T21:39:06.859Z,4.29
2023-02-01T21:41:53.580Z,4.02
2023-02-01T21:44:23.844Z,4.01
2023-02-01T21:46:51.131Z,4.06
2023-02-01T21:49:18.379Z,4.13
2023-02-01T21:51:46.162Z,4.24
2023-02-01T21:54:13.536Z,4.56
2023-02-01T21:56:40.953Z,4.11
2023-02-01T21:59:12.872Z,4.04
2023-02-01T22:01:40.482Z,4.48
2023-02-01T22:04:09.114Z,4.31
2023-02-01T22:06:38.408Z,4.07
2023-02-01T22:09:05.628Z,4.28
2023-02-01T22:11:33.215Z,4.51
2023-02-01T22:14:00.603Z,4.34
2023-02-01T22:16:27.835Z,4.30
2023-02-01T22:18:55.344Z,4.15
2023-02-01T22:21:24.105Z,4.71
2023-02-01T22:23:54.774Z,4.53
2023-02-01T22:26:22.488Z,4.51
2023-02-01T22:28:49.830Z,4.13
2023-02-01T22:31:17.592Z,4.65
2023-02-01T22:33:45.744Z,4.43
2023-02-01T22:36:13.175Z,4.56
2023-02-01T22:38:40.826Z,4.65
2023-02-01T22:41:08.603Z,4.51
2023-02-01T22:43:35.892Z,4.42
2023-02-01T22:46:04.152Z,4.37
2023-02-01T22:48:33.141Z,4.49
2023-02-01T22:51:00.533Z,4.93
2023-02-01T22:53:28.080Z,4.76
2023-02-01T22:56:05.309Z,4.19
2023-02-01T22:58:32.552Z,5.10
2023-02-01T23:01:09.729Z,4.73
2023-02-01T23:03:37.301Z,4.73
2023-02-01T23:06:05.970Z,4.63
2023-02-01T23:08:35.479Z,4.51
2023-02-01T23:11:04.240Z,4.30
2023-02-01T23:13:32.023Z,4.30
2023-02-01T23:15:59.367Z,4.35
2023-02-01T23:18:45.168Z,4.33
2023-02-01T23:21:13.945Z,4.63
2023-02-01T23:23:41.126Z,4.33
2023-02-01T23:26:08.322Z,4.56
2023-02-01T23:28:35.810Z,4.39
2023-02-01T23:31:07.200Z,4.70
2023-02-01T23:33:34.647Z,4.56
2023-02-01T23:36:02.764Z,5.28
2023-02-01T23:38:30.036Z,4.49
2023-02-01T23:41:02.076Z,4.52
2023-02-01T23:43:48.341Z,4.60
2023-02-01T23:46:15.899Z,4.21
2023-02-01T23:48:43.869Z,4.34
2023-02-01T23:51:11.308Z,4.45
2023-02-01T23:53:38.570Z,4.68
2023-02-01T23:56:06.459Z,4.36
2023-02-01T23:58:33.605Z,4.77
